sensor_id;sensor_type;location;lat;lon;timestamp;temperature;humidity
24250;DHT22;12379;49.820;8.648;2023-05-28T00:00:02;15.60;95.90
24250;DHT22;12379;49.820;8.648;2023-05-28T00:02:28;15.60;95.70
24250;DHT22;12379;49.820;8.648;2023-05-28T00:04:53;15.70;95.70
24250;DHT22;12379;49.820;8.648;2023-05-28T00:07:19;15.60;95.70
24250;DHT22;12379;49.820;8.648;2023-05-28T00:09:46;15.70;95.60
24250;DHT22;12379;49.820;8.648;2023-05-28T00:12:14;15.70;95.60
24250;DHT22;12379;49.820;8.648;2023-05-28T00:14:39;15.70;95.40
24250;DHT22;12379;49.820;8.648;2023-05-28T00:17:05;15.70;95.40
24250;DHT22;12379;49.820;8.648;2023-05-28T00:19:30;15.60;95.40
24250;DHT22;12379;49.820;8.648;2023-05-28T00:21:56;15.70;95.30
24250;DHT22;12379;49.820;8.648;2023-05-28T00:24:21;15.60;95.40
24250;DHT22;12379;49.820;8.648;2023-05-28T00:26:47;15.60;95.50
24250;DHT22;12379;49.820;8.648;2023-05-28T00:29:12;15.60;95.40
24250;DHT22;12379;49.820;8.648;2023-05-28T00:31:39;15.50;95.40
24250;DHT22;12379;49.820;8.648;2023-05-28T00:34:04;15.50;95.40
24250;DHT22;12379;49.820;8.648;2023-05-28T00:36:30;15.60;95.20
24250;DHT22;12379;49.820;8.648;2023-05-28T00:38:56;15.50;95.20
24250;DHT22;12379;49.820;8.648;2023-05-28T00:41:22;15.50;95.20
24250;DHT22;12379;49.820;8.648;2023-05-28T00:43:51;15.50;95.20
24250;DHT22;12379;49.820;8.648;2023-05-28T00:46:18;15.50;95.30
24250;DHT22;12379;49.820;8.648;2023-05-28T00:48:44;15.40;95.40
24250;DHT22;12379;49.820;8.648;2023-05-28T00:51:11;15.40;95.60
24250;DHT22;12379;49.820;8.648;2023-05-28T00:53:38;15.30;95.60
24250;DHT22;12379;49.820;8.648;2023-05-28T00:56:04;15.30;95.50
24250;DHT22;12379;49.820;8.648;2023-05-28T00:58:30;15.30;95.20
24250;DHT22;12379;49.820;8.648;2023-05-28T01:00:56;15.30;95.40
24250;DHT22;12379;49.820;8.648;2023-05-28T01:03:22;15.30;95.40
24250;DHT22;12379;49.820;8.648;2023-05-28T01:05:47;15.20;95.60
24250;DHT22;12379;49.820;8.648;2023-05-28T01:08:13;15.20;95.50
24250;DHT22;12379;49.820;8.648;2023-05-28T01:10:39;15.20;95.60
24250;DHT22;12379;49.820;8.648;2023-05-28T01:13:06;15.30;95.20
24250;DHT22;12379;49.820;8.648;2023-05-28T01:15:32;15.40;95.10
24250;DHT22;12379;49.820;8.648;2023-05-28T01:18:00;15.40;95.00
24250;DHT22;12379;49.820;8.648;2023-05-28T01:20:27;15.40;95.00
24250;DHT22;12379;49.820;8.648;2023-05-28T01:23:00;15.30;94.90
24250;DHT22;12379;49.820;8.648;2023-05-28T01:25:27;15.30;94.80
24250;DHT22;12379;49.820;8.648;2023-05-28T01:27:53;15.30;94.90
24250;DHT22;12379;49.820;8.648;2023-05-28T01:30:19;15.30;95.00
24250;DHT22;12379;49.820;8.648;2023-05-28T01:32:45;15.30;95.20
24250;DHT22;12379;49.820;8.648;2023-05-28T01:35:12;15.20;95.30
24250;DHT22;12379;49.820;8.648;2023-05-28T01:37:44;15.20;95.30
24250;DHT22;12379;49.820;8.648;2023-05-28T01:40:12;15.20;95.40
24250;DHT22;12379;49.820;8.648;2023-05-28T01:42:39;15.20;95.40
24250;DHT22;12379;49.820;8.648;2023-05-28T01:45:06;15.20;95.40
24250;DHT22;12379;49.820;8.648;2023-05-28T01:47:33;15.20;95.40
24250;DHT22;12379;49.820;8.648;2023-05-28T01:49:59;15.20;95.30
24250;DHT22;12379;49.820;8.648;2023-05-28T01:52:24;15.20;95.20
24250;DHT22;12379;49.820;8.648;2023-05-28T01:54:50;15.20;95.30
24250;DHT22;12379;49.820;8.648;2023-05-28T01:57:15;15.20;95.30
24250;DHT22;12379;49.820;8.648;2023-05-28T01:59:41;15.20;95.50
24250;DHT22;12379;49.820;8.648;2023-05-28T02:02:07;15.10;95.50
24250;DHT22;12379;49.820;8.648;2023-05-28T02:04:33;15.10;95.60
24250;DHT22;12379;49.820;8.648;2023-05-28T02:06:58;15.10;95.70
24250;DHT22;12379;49.820;8.648;2023-05-28T02:09:24;15.10;95.80
24250;DHT22;12379;49.820;8.648;2023-05-28T02:11:50;15.10;95.70
24250;DHT22;12379;49.820;8.648;2023-05-28T02:14:15;15.00;95.90
24250;DHT22;12379;49.820;8.648;2023-05-28T02:16:48;15.00;96.20
24250;DHT22;12379;49.820;8.648;2023-05-28T02:19:14;15.00;96.30
24250;DHT22;12379;49.820;8.648;2023-05-28T02:21:39;14.90;96.20
24250;DHT22;12379;49.820;8.648;2023-05-28T02:24:05;14.90;96.50
24250;DHT22;12379;49.820;8.648;2023-05-28T02:26:31;14.90;96.50
24250;DHT22;12379;49.820;8.648;2023-05-28T02:28:56;14.90;96.50
24250;DHT22;12379;49.820;8.648;2023-05-28T02:31:22;14.90;96.60
24250;DHT22;12379;49.820;8.648;2023-05-28T02:33:47;14.90;96.60
24250;DHT22;12379;49.820;8.648;2023-05-28T02:36:14;14.90;96.80
24250;DHT22;12379;49.820;8.648;2023-05-28T02:38:41;14.90;96.90
24250;DHT22;12379;49.820;8.648;2023-05-28T02:41:07;14.90;96.60
24250;DHT22;12379;49.820;8.648;2023-05-28T02:43:33;14.90;96.90
24250;DHT22;12379;49.820;8.648;2023-05-28T02:45:58;14.90;96.70
24250;DHT22;12379;49.820;8.648;2023-05-28T02:48:24;14.90;97.00
24250;DHT22;12379;49.820;8.648;2023-05-28T02:50:50;14.80;97.10
24250;DHT22;12379;49.820;8.648;2023-05-28T02:53:21;14.80;97.30
24250;DHT22;12379;49.820;8.648;2023-05-28T02:55:47;14.70;97.40
24250;DHT22;12379;49.820;8.648;2023-05-28T02:58:13;14.70;97.30
24250;DHT22;12379;49.820;8.648;2023-05-28T03:00:40;14.60;97.30
24250;DHT22;12379;49.820;8.648;2023-05-28T03:03:05;14.70;97.30
24250;DHT22;12379;49.820;8.648;2023-05-28T03:05:31;14.60;97.50
24250;DHT22;12379;49.820;8.648;2023-05-28T03:07:58;14.60;97.80
24250;DHT22;12379;49.820;8.648;2023-05-28T03:10:24;14.60;97.80
24250;DHT22;12379;49.820;8.648;2023-05-28T03:12:49;14.60;98.00
24250;DHT22;12379;49.820;8.648;2023-05-28T03:15:15;14.50;98.20
24250;DHT22;12379;49.820;8.648;2023-05-28T03:17:40;14.50;97.70
24250;DHT22;12379;49.820;8.648;2023-05-28T03:20:06;14.40;98.10
24250;DHT22;12379;49.820;8.648;2023-05-28T03:22:36;14.20;98.60
24250;DHT22;12379;49.820;8.648;2023-05-28T03:25:02;14.20;99.30
24250;DHT22;12379;49.820;8.648;2023-05-28T03:27:28;14.10;99.50
24250;DHT22;12379;49.820;8.648;2023-05-28T03:29:53;14.00;99.90
24250;DHT22;12379;49.820;8.648;2023-05-28T03:32:19;14.00;99.90
24250;DHT22;12379;49.820;8.648;2023-05-28T03:34:44;13.90;99.90
24250;DHT22;12379;49.820;8.648;2023-05-28T03:37:10;13.90;99.90
24250;DHT22;12379;49.820;8.648;2023-05-28T03:39:36;13.80;99.90
24250;DHT22;12379;49.820;8.648;2023-05-28T03:42:01;13.80;99.90
24250;DHT22;12379;49.820;8.648;2023-05-28T03:44:27;13.70;99.90
24250;DHT22;12379;49.820;8.648;2023-05-28T03:46:53;13.70;99.90
24250;DHT22;12379;49.820;8.648;2023-05-28T03:49:18;13.60;99.90
24250;DHT22;12379;49.820;8.648;2023-05-28T03:51:44;13.60;99.90
24250;DHT22;12379;49.820;8.648;2023-05-28T03:54:09;13.50;99.90
24250;DHT22;12379;49.820;8.648;2023-05-28T03:56:35;13.40;99.90
24250;DHT22;12379;49.820;8.648;2023-05-28T03:59:01;13.30;99.90
24250;DHT22;12379;49.820;8.648;2023-05-28T04:01:26;13.10;99.90
24250;DHT22;12379;49.820;8.648;2023-05-28T04:03:54;13.10;99.90
24250;DHT22;12379;49.820;8.648;2023-05-28T04:06:19;13.10;99.90
24250;DHT22;12379;49.820;8.648;2023-05-28T04:08:45;13.20;99.90
24250;DHT22;12379;49.820;8.648;2023-05-28T04:11:10;13.20;99.90
24250;DHT22;12379;49.820;8.648;2023-05-28T04:13:36;13.20;99.90
24250;DHT22;12379;49.820;8.648;2023-05-28T04:16:01;13.20;99.90
24250;DHT22;12379;49.820;8.648;2023-05-28T04:18:27;13.30;99.90
24250;DHT22;12379;49.820;8.648;2023-05-28T04:20:53;13.30;99.90
24250;DHT22;12379;49.820;8.648;2023-05-28T04:23:19;13.30;99.90
24250;DHT22;12379;49.820;8.648;2023-05-28T04:25:44;13.30;99.90
24250;DHT22;12379;49.820;8.648;2023-05-28T04:28:10;13.30;99.90
24250;DHT22;12379;49.820;8.648;2023-05-28T04:30:36;13.40;99.90
24250;DHT22;12379;49.820;8.648;2023-05-28T04:33:05;13.40;99.90
24250;DHT22;12379;49.820;8.648;2023-05-28T04:35:42;13.50;99.90
24250;DHT22;12379;49.820;8.648;2023-05-28T04:38:08;13.60;99.90
24250;DHT22;12379;49.820;8.648;2023-05-28T04:40:34;13.70;99.90
24250;DHT22;12379;49.820;8.648;2023-05-28T04:43:01;13.70;99.90
24250;DHT22;12379;49.820;8.648;2023-05-28T04:45:28;13.70;99.90
24250;DHT22;12379;49.820;8.648;2023-05-28T04:47:54;13.80;99.90
24250;DHT22;12379;49.820;8.648;2023-05-28T04:50:19;13.90;99.90
24250;DHT22;12379;49.820;8.648;2023-05-28T04:52:45;14.00;99.90
24250;DHT22;12379;49.820;8.648;2023-05-28T04:55:11;13.90;99.90
24250;DHT22;12379;49.820;8.648;2023-05-28T04:57:37;14.10;99.90
24250;DHT22;12379;49.820;8.648;2023-05-28T05:00:06;14.10;99.90
24250;DHT22;12379;49.820;8.648;2023-05-28T05:02:36;14.20;99.90
24250;DHT22;12379;49.820;8.648;2023-05-28T05:05:05;14.20;99.90
24250;DHT22;12379;49.820;8.648;2023-05-28T05:07:35;14.30;99.90
24250;DHT22;12379;49.820;8.648;2023-05-28T05:10:05;14.30;99.90
24250;DHT22;12379;49.820;8.648;2023-05-28T05:12:30;14.40;99.90
24250;DHT22;12379;49.820;8.648;2023-05-28T05:14:56;14.50;99.90
24250;DHT22;12379;49.820;8.648;2023-05-28T05:17:22;14.60;99.90
24250;DHT22;12379;49.820;8.648;2023-05-28T05:19:47;14.60;99.90
24250;DHT22;12379;49.820;8.648;2023-05-28T05:22:15;14.70;99.90
24250;DHT22;12379;49.820;8.648;2023-05-28T05:24:41;14.80;99.90
24250;DHT22;12379;49.820;8.648;2023-05-28T05:27:07;14.80;99.90
24250;DHT22;12379;49.820;8.648;2023-05-28T05:29:32;14.90;99.90
24250;DHT22;12379;49.820;8.648;2023-05-28T05:31:58;15.00;99.90
24250;DHT22;12379;49.820;8.648;2023-05-28T05:34:23;15.20;99.90
24250;DHT22;12379;49.820;8.648;2023-05-28T05:36:49;15.20;99.90
24250;DHT22;12379;49.820;8.648;2023-05-28T05:39:14;15.30;99.90
24250;DHT22;12379;49.820;8.648;2023-05-28T05:41:40;15.40;99.90
24250;DHT22;12379;49.820;8.648;2023-05-28T05:44:06;15.50;99.90
24250;DHT22;12379;49.820;8.648;2023-05-28T05:46:31;15.60;99.90
24250;DHT22;12379;49.820;8.648;2023-05-28T05:48:57;15.80;99.90
24250;DHT22;12379;49.820;8.648;2023-05-28T05:51:22;16.00;99.90
24250;DHT22;12379;49.820;8.648;2023-05-28T05:53:48;16.50;99.90
24250;DHT22;12379;49.820;8.648;2023-05-28T05:56:13;17.10;99.40
24250;DHT22;12379;49.820;8.648;2023-05-28T05:58:39;17.70;98.30
24250;DHT22;12379;49.820;8.648;2023-05-28T06:01:04;18.30;97.00
24250;DHT22;12379;49.820;8.648;2023-05-28T06:03:30;18.80;96.80
24250;DHT22;12379;49.820;8.648;2023-05-28T06:05:56;19.30;95.70
24250;DHT22;12379;49.820;8.648;2023-05-28T06:08:22;19.90;93.70
24250;DHT22;12379;49.820;8.648;2023-05-28T06:10:47;20.50;92.70
24250;DHT22;12379;49.820;8.648;2023-05-28T06:13:14;21.30;92.10
24250;DHT22;12379;49.820;8.648;2023-05-28T06:15:39;21.60;90.10
24250;DHT22;12379;49.820;8.648;2023-05-28T06:18:05;22.50;88.50
24250;DHT22;12379;49.820;8.648;2023-05-28T06:20:31;23.30;85.00
24250;DHT22;12379;49.820;8.648;2023-05-28T06:22:56;23.40;80.40
24250;DHT22;12379;49.820;8.648;2023-05-28T06:25:22;23.60;80.70
24250;DHT22;12379;49.820;8.648;2023-05-28T06:27:48;24.40;76.20
24250;DHT22;12379;49.820;8.648;2023-05-28T06:30:14;24.40;75.50
24250;DHT22;12379;49.820;8.648;2023-05-28T06:32:41;24.50;75.30
24250;DHT22;12379;49.820;8.648;2023-05-28T06:35:07;24.60;73.40
24250;DHT22;12379;49.820;8.648;2023-05-28T06:37:33;24.30;72.90
24250;DHT22;12379;49.820;8.648;2023-05-28T06:39:59;24.20;71.70
24250;DHT22;12379;49.820;8.648;2023-05-28T06:42:24;23.80;72.80
24250;DHT22;12379;49.820;8.648;2023-05-28T06:44:50;23.90;72.40
24250;DHT22;12379;49.820;8.648;2023-05-28T06:47:16;24.40;72.60
24250;DHT22;12379;49.820;8.648;2023-05-28T06:49:42;24.80;69.60
24250;DHT22;12379;49.820;8.648;2023-05-28T06:52:08;24.60;67.30
24250;DHT22;12379;49.820;8.648;2023-05-28T06:54:33;24.30;68.50
24250;DHT22;12379;49.820;8.648;2023-05-28T06:56:59;24.60;69.00
24250;DHT22;12379;49.820;8.648;2023-05-28T06:59:24;24.30;68.80
24250;DHT22;12379;49.820;8.648;2023-05-28T07:01:50;24.10;67.70
24250;DHT22;12379;49.820;8.648;2023-05-28T07:04:16;24.60;68.00
24250;DHT22;12379;49.820;8.648;2023-05-28T07:06:41;24.80;67.20
24250;DHT22;12379;49.820;8.648;2023-05-28T07:09:07;25.10;67.50
24250;DHT22;12379;49.820;8.648;2023-05-28T07:11:32;24.60;66.10
24250;DHT22;12379;49.820;8.648;2023-05-28T07:13:58;24.90;67.80
24250;DHT22;12379;49.820;8.648;2023-05-28T07:16:24;24.80;66.90
24250;DHT22;12379;49.820;8.648;2023-05-28T07:18:49;24.60;66.80
24250;DHT22;12379;49.820;8.648;2023-05-28T07:21:15;24.80;67.60
24250;DHT22;12379;49.820;8.648;2023-05-28T07:23:40;25.30;65.50
24250;DHT22;12379;49.820;8.648;2023-05-28T07:26:06;25.60;65.10
24250;DHT22;12379;49.820;8.648;2023-05-28T07:28:31;25.30;65.20
24250;DHT22;12379;49.820;8.648;2023-05-28T07:30:57;25.40;64.00
24250;DHT22;12379;49.820;8.648;2023-05-28T07:33:23;25.40;65.60
24250;DHT22;12379;49.820;8.648;2023-05-28T07:35:49;25.60;64.40
24250;DHT22;12379;49.820;8.648;2023-05-28T07:38:14;25.40;64.30
24250;DHT22;12379;49.820;8.648;2023-05-28T07:40:41;25.40;65.00
24250;DHT22;12379;49.820;8.648;2023-05-28T07:43:07;25.10;64.10
24250;DHT22;12379;49.820;8.648;2023-05-28T07:45:32;25.20;65.40
24250;DHT22;12379;49.820;8.648;2023-05-28T07:47:58;25.10;66.30
24250;DHT22;12379;49.820;8.648;2023-05-28T07:50:23;25.30;65.10
24250;DHT22;12379;49.820;8.648;2023-05-28T07:52:49;24.70;66.20
24250;DHT22;12379;49.820;8.648;2023-05-28T07:55:14;24.80;64.60
24250;DHT22;12379;49.820;8.648;2023-05-28T07:57:40;24.40;67.00
24250;DHT22;12379;49.820;8.648;2023-05-28T08:00:06;24.40;66.50
24250;DHT22;12379;49.820;8.648;2023-05-28T08:02:34;24.20;67.00
24250;DHT22;12379;49.820;8.648;2023-05-28T08:04:59;24.80;66.60
24250;DHT22;12379;49.820;8.648;2023-05-28T08:07:27;25.00;64.60
24250;DHT22;12379;49.820;8.648;2023-05-28T08:09:52;25.60;66.20
24250;DHT22;12379;49.820;8.648;2023-05-28T08:12:18;26.10;63.20
24250;DHT22;12379;49.820;8.648;2023-05-28T08:14:44;26.20;62.70
24250;DHT22;12379;49.820;8.648;2023-05-28T08:17:09;26.10;61.80
24250;DHT22;12379;49.820;8.648;2023-05-28T08:19:35;26.00;63.30
24250;DHT22;12379;49.820;8.648;2023-05-28T08:22:01;26.70;62.00
24250;DHT22;12379;49.820;8.648;2023-05-28T08:24:26;26.40;61.80
24250;DHT22;12379;49.820;8.648;2023-05-28T08:26:52;26.40;61.50
24250;DHT22;12379;49.820;8.648;2023-05-28T08:29:17;26.20;61.90
24250;DHT22;12379;49.820;8.648;2023-05-28T08:31:43;26.30;62.20
24250;DHT22;12379;49.820;8.648;2023-05-28T08:34:08;26.90;61.60
24250;DHT22;12379;49.820;8.648;2023-05-28T08:36:35;27.50;59.40
24250;DHT22;12379;49.820;8.648;2023-05-28T08:39:01;27.40;59.80
24250;DHT22;12379;49.820;8.648;2023-05-28T08:41:27;27.30;58.50
24250;DHT22;12379;49.820;8.648;2023-05-28T08:43:53;27.80;58.30
24250;DHT22;12379;49.820;8.648;2023-05-28T08:46:18;27.60;59.20
24250;DHT22;12379;49.820;8.648;2023-05-28T08:48:45;27.60;58.40
24250;DHT22;12379;49.820;8.648;2023-05-28T08:51:11;27.40;59.60
24250;DHT22;12379;49.820;8.648;2023-05-28T08:53:43;27.30;59.90
24250;DHT22;12379;49.820;8.648;2023-05-28T08:56:10;27.40;58.80
24250;DHT22;12379;49.820;8.648;2023-05-28T08:58:36;27.30;57.90
24250;DHT22;12379;49.820;8.648;2023-05-28T09:01:04;27.00;59.80
24250;DHT22;12379;49.820;8.648;2023-05-28T09:03:33;27.00;59.50
24250;DHT22;12379;49.820;8.648;2023-05-28T09:05:58;26.90;60.70
24250;DHT22;12379;49.820;8.648;2023-05-28T09:08:24;27.30;59.20
24250;DHT22;12379;49.820;8.648;2023-05-28T09:10:50;27.50;58.90
24250;DHT22;12379;49.820;8.648;2023-05-28T09:13:20;27.10;59.10
24250;DHT22;12379;49.820;8.648;2023-05-28T09:15:53;27.40;58.70
24250;DHT22;12379;49.820;8.648;2023-05-28T09:18:20;27.50;58.10
24250;DHT22;12379;49.820;8.648;2023-05-28T09:20:47;27.30;59.10
24250;DHT22;12379;49.820;8.648;2023-05-28T09:23:16;26.90;59.10
24250;DHT22;12379;49.820;8.648;2023-05-28T09:25:42;27.30;58.80
24250;DHT22;12379;49.820;8.648;2023-05-28T09:28:07;27.50;57.00
24250;DHT22;12379;49.820;8.648;2023-05-28T09:30:36;27.50;56.00
24250;DHT22;12379;49.820;8.648;2023-05-28T09:33:03;27.40;57.10
24250;DHT22;12379;49.820;8.648;2023-05-28T09:35:30;27.50;55.00
24250;DHT22;12379;49.820;8.648;2023-05-28T09:38:06;27.50;56.00
24250;DHT22;12379;49.820;8.648;2023-05-28T09:40:43;27.40;56.70
24250;DHT22;12379;49.820;8.648;2023-05-28T09:43:09;27.30;56.40
24250;DHT22;12379;49.820;8.648;2023-05-28T09:45:36;27.30;57.90
24250;DHT22;12379;49.820;8.648;2023-05-28T09:48:02;26.90;55.30
24250;DHT22;12379;49.820;8.648;2023-05-28T09:50:28;26.30;57.60
24250;DHT22;12379;49.820;8.648;2023-05-28T09:52:58;26.80;57.20
24250;DHT22;12379;49.820;8.648;2023-05-28T09:55:25;27.10;56.20
24250;DHT22;12379;49.820;8.648;2023-05-28T09:57:54;27.10;56.00
24250;DHT22;12379;49.820;8.648;2023-05-28T10:00:25;27.60;53.30
24250;DHT22;12379;49.820;8.648;2023-05-28T10:03:00;27.40;54.10
24250;DHT22;12379;49.820;8.648;2023-05-28T10:05:32;26.90;51.70
24250;DHT22;12379;49.820;8.648;2023-05-28T10:08:00;25.70;53.80
24250;DHT22;12379;49.820;8.648;2023-05-28T10:10:27;25.20;54.20
24250;DHT22;12379;49.820;8.648;2023-05-28T10:12:55;25.30;55.90
24250;DHT22;12379;49.820;8.648;2023-05-28T10:15:22;25.30;56.60
24250;DHT22;12379;49.820;8.648;2023-05-28T10:17:48;26.10;54.50
24250;DHT22;12379;49.820;8.648;2023-05-28T10:20:14;26.00;52.80
24250;DHT22;12379;49.820;8.648;2023-05-28T10:22:41;26.00;53.00
24250;DHT22;12379;49.820;8.648;2023-05-28T10:25:08;26.70;50.00
24250;DHT22;12379;49.820;8.648;2023-05-28T10:27:36;26.60;49.70
24250;DHT22;12379;49.820;8.648;2023-05-28T10:30:03;26.70;51.20
24250;DHT22;12379;49.820;8.648;2023-05-28T10:32:29;26.90;47.60
24250;DHT22;12379;49.820;8.648;2023-05-28T10:35:01;26.40;50.90
24250;DHT22;12379;49.820;8.648;2023-05-28T10:37:28;26.60;50.60
24250;DHT22;12379;49.820;8.648;2023-05-28T10:39:53;26.80;50.70
24250;DHT22;12379;49.820;8.648;2023-05-28T10:42:19;26.40;50.00
24250;DHT22;12379;49.820;8.648;2023-05-28T10:45:07;26.00;51.30
24250;DHT22;12379;49.820;8.648;2023-05-28T10:47:34;26.00;52.80
24250;DHT22;12379;49.820;8.648;2023-05-28T10:52:36;26.50;50.10
24250;DHT22;12379;49.820;8.648;2023-05-28T10:55:03;26.50;50.40
24250;DHT22;12379;49.820;8.648;2023-05-28T10:57:56;26.60;47.80
24250;DHT22;12379;49.820;8.648;2023-05-28T11:00:40;26.40;49.70
24250;DHT22;12379;49.820;8.648;2023-05-28T11:03:06;25.70;48.30
24250;DHT22;12379;49.820;8.648;2023-05-28T11:05:31;24.90;49.30
24250;DHT22;12379;49.820;8.648;2023-05-28T11:08:00;25.20;48.40
24250;DHT22;12379;49.820;8.648;2023-05-28T11:10:27;25.30;49.00
24250;DHT22;12379;49.820;8.648;2023-05-28T11:12:53;25.10;47.40
24250;DHT22;12379;49.820;8.648;2023-05-28T11:15:21;25.00;49.10
24250;DHT22;12379;49.820;8.648;2023-05-28T11:17:47;25.10;49.00
24250;DHT22;12379;49.820;8.648;2023-05-28T11:20:22;25.10;48.20
24250;DHT22;12379;49.820;8.648;2023-05-28T11:22:52;25.20;46.10
24250;DHT22;12379;49.820;8.648;2023-05-28T11:25:18;25.10;45.80
24250;DHT22;12379;49.820;8.648;2023-05-28T11:27:48;25.00;47.80
24250;DHT22;12379;49.820;8.648;2023-05-28T11:30:15;25.20;46.90
24250;DHT22;12379;49.820;8.648;2023-05-28T11:32:42;25.00;46.40
24250;DHT22;12379;49.820;8.648;2023-05-28T11:35:15;24.80;49.00
24250;DHT22;12379;49.820;8.648;2023-05-28T11:37:43;24.70;50.30
24250;DHT22;12379;49.820;8.648;2023-05-28T11:40:10;24.80;49.80
24250;DHT22;12379;49.820;8.648;2023-05-28T11:42:41;25.10;49.20
24250;DHT22;12379;49.820;8.648;2023-05-28T11:45:07;25.10;49.60
24250;DHT22;12379;49.820;8.648;2023-05-28T11:47:34;25.00;48.90
24250;DHT22;12379;49.820;8.648;2023-05-28T11:50:06;25.10;49.30
24250;DHT22;12379;49.820;8.648;2023-05-28T11:52:32;24.80;51.00
24250;DHT22;12379;49.820;8.648;2023-05-28T11:54:58;25.10;50.10
24250;DHT22;12379;49.820;8.648;2023-05-28T11:57:29;25.10;51.10
24250;DHT22;12379;49.820;8.648;2023-05-28T12:00:08;25.30;51.00
24250;DHT22;12379;49.820;8.648;2023-05-28T12:02:48;25.10;50.60
24250;DHT22;12379;49.820;8.648;2023-05-28T12:05:15;25.00;50.50
24250;DHT22;12379;49.820;8.648;2023-05-28T12:07:51;25.10;50.00
24250;DHT22;12379;49.820;8.648;2023-05-28T12:10:18;24.80;50.00
24250;DHT22;12379;49.820;8.648;2023-05-28T12:12:52;25.30;49.30
24250;DHT22;12379;49.820;8.648;2023-05-28T12:15:28;25.30;49.70
24250;DHT22;12379;49.820;8.648;2023-05-28T12:17:57;25.40;50.50
24250;DHT22;12379;49.820;8.648;2023-05-28T12:23:11;25.50;50.80
24250;DHT22;12379;49.820;8.648;2023-05-28T12:28:13;25.50;51.50
24250;DHT22;12379;49.820;8.648;2023-05-28T12:30:40;25.60;51.50
24250;DHT22;12379;49.820;8.648;2023-05-28T12:33:06;25.60;51.90
24250;DHT22;12379;49.820;8.648;2023-05-28T12:35:31;25.70;51.60
24250;DHT22;12379;49.820;8.648;2023-05-28T12:37:57;25.90;49.70
24250;DHT22;12379;49.820;8.648;2023-05-28T12:40:22;25.60;49.90
24250;DHT22;12379;49.820;8.648;2023-05-28T12:42:48;25.60;49.70
24250;DHT22;12379;49.820;8.648;2023-05-28T12:45:14;25.40;50.40
24250;DHT22;12379;49.820;8.648;2023-05-28T12:47:40;25.70;49.30
24250;DHT22;12379;49.820;8.648;2023-05-28T12:50:06;25.80;49.80
24250;DHT22;12379;49.820;8.648;2023-05-28T12:52:32;25.70;49.80
24250;DHT22;12379;49.820;8.648;2023-05-28T12:55:02;25.90;48.80
24250;DHT22;12379;49.820;8.648;2023-05-28T12:57:28;26.00;49.70
24250;DHT22;12379;49.820;8.648;2023-05-28T12:59:55;26.20;48.40
24250;DHT22;12379;49.820;8.648;2023-05-28T13:02:21;26.20;46.90
24250;DHT22;12379;49.820;8.648;2023-05-28T13:04:46;26.10;47.20
24250;DHT22;12379;49.820;8.648;2023-05-28T13:07:12;26.00;48.20
24250;DHT22;12379;49.820;8.648;2023-05-28T13:09:38;26.00;47.50
24250;DHT22;12379;49.820;8.648;2023-05-28T13:12:04;26.10;48.40
24250;DHT22;12379;49.820;8.648;2023-05-28T13:14:30;26.20;47.40
24250;DHT22;12379;49.820;8.648;2023-05-28T13:16:57;26.20;47.30
24250;DHT22;12379;49.820;8.648;2023-05-28T13:19:23;26.10;48.70
24250;DHT22;12379;49.820;8.648;2023-05-28T13:21:49;26.50;46.50
24250;DHT22;12379;49.820;8.648;2023-05-28T13:24:15;26.30;47.50
24250;DHT22;12379;49.820;8.648;2023-05-28T13:26:40;26.00;47.60
24250;DHT22;12379;49.820;8.648;2023-05-28T13:29:06;26.10;48.80
24250;DHT22;12379;49.820;8.648;2023-05-28T13:31:32;26.40;48.60
24250;DHT22;12379;49.820;8.648;2023-05-28T13:33:58;26.70;49.40
24250;DHT22;12379;49.820;8.648;2023-05-28T13:36:24;26.70;48.80
24250;DHT22;12379;49.820;8.648;2023-05-28T13:38:50;26.80;48.00
24250;DHT22;12379;49.820;8.648;2023-05-28T13:41:16;26.70;48.10
24250;DHT22;12379;49.820;8.648;2023-05-28T13:43:43;26.60;48.60
24250;DHT22;12379;49.820;8.648;2023-05-28T13:46:09;26.80;49.40
24250;DHT22;12379;49.820;8.648;2023-05-28T13:48:34;26.70;48.30
24250;DHT22;12379;49.820;8.648;2023-05-28T13:51:00;26.30;49.40
24250;DHT22;12379;49.820;8.648;2023-05-28T13:53:30;26.50;49.70
24250;DHT22;12379;49.820;8.648;2023-05-28T13:55:57;26.70;48.90
24250;DHT22;12379;49.820;8.648;2023-05-28T13:58:23;26.80;50.30
24250;DHT22;12379;49.820;8.648;2023-05-28T14:00:49;26.80;49.70
24250;DHT22;12379;49.820;8.648;2023-05-28T14:03:15;27.00;50.10
24250;DHT22;12379;49.820;8.648;2023-05-28T14:05:43;27.00;49.70
24250;DHT22;12379;49.820;8.648;2023-05-28T14:08:09;26.70;50.00
24250;DHT22;12379;49.820;8.648;2023-05-28T14:10:35;26.80;50.20
24250;DHT22;12379;49.820;8.648;2023-05-28T14:13:01;26.80;50.50
24250;DHT22;12379;49.820;8.648;2023-05-28T14:15:26;26.80;49.90
24250;DHT22;12379;49.820;8.648;2023-05-28T14:17:54;26.70;50.60
24250;DHT22;12379;49.820;8.648;2023-05-28T14:20:20;27.00;50.00
24250;DHT22;12379;49.820;8.648;2023-05-28T14:22:45;27.00;50.30
24250;DHT22;12379;49.820;8.648;2023-05-28T14:25:11;27.00;50.30
24250;DHT22;12379;49.820;8.648;2023-05-28T14:27:38;27.00;50.20
24250;DHT22;12379;49.820;8.648;2023-05-28T14:30:04;26.90;50.10
24250;DHT22;12379;49.820;8.648;2023-05-28T14:32:30;26.90;50.20
24250;DHT22;12379;49.820;8.648;2023-05-28T14:34:55;26.90;50.40
24250;DHT22;12379;49.820;8.648;2023-05-28T14:37:21;27.00;51.50
24250;DHT22;12379;49.820;8.648;2023-05-28T14:39:47;27.20;50.30
24250;DHT22;12379;49.820;8.648;2023-05-28T14:42:12;27.10;50.10
24250;DHT22;12379;49.820;8.648;2023-05-28T14:44:38;26.90;49.20
24250;DHT22;12379;49.820;8.648;2023-05-28T14:47:04;26.60;49.50
24250;DHT22;12379;49.820;8.648;2023-05-28T14:49:29;26.70;49.60
24250;DHT22;12379;49.820;8.648;2023-05-28T14:51:56;26.60;50.10
24250;DHT22;12379;49.820;8.648;2023-05-28T14:54:25;26.50;49.80
24250;DHT22;12379;49.820;8.648;2023-05-28T14:56:51;26.60;49.90
24250;DHT22;12379;49.820;8.648;2023-05-28T14:59:18;26.60;49.60
24250;DHT22;12379;49.820;8.648;2023-05-28T15:01:43;26.60;50.30
24250;DHT22;12379;49.820;8.648;2023-05-28T15:04:09;26.50;49.90
24250;DHT22;12379;49.820;8.648;2023-05-28T15:06:35;26.70;51.20
24250;DHT22;12379;49.820;8.648;2023-05-28T15:09:00;26.80;51.30
24250;DHT22;12379;49.820;8.648;2023-05-28T15:11:29;26.70;50.60
24250;DHT22;12379;49.820;8.648;2023-05-28T15:13:55;26.70;51.30
24250;DHT22;12379;49.820;8.648;2023-05-28T15:16:20;27.00;50.10
24250;DHT22;12379;49.820;8.648;2023-05-28T15:18:46;27.00;50.80
24250;DHT22;12379;49.820;8.648;2023-05-28T15:21:11;27.10;51.50
24250;DHT22;12379;49.820;8.648;2023-05-28T15:23:38;26.90;50.20
24250;DHT22;12379;49.820;8.648;2023-05-28T15:26:04;26.90;52.10
24250;DHT22;12379;49.820;8.648;2023-05-28T15:28:29;27.00;50.10
24250;DHT22;12379;49.820;8.648;2023-05-28T15:30:55;26.70;50.00
24250;DHT22;12379;49.820;8.648;2023-05-28T15:33:22;26.60;50.80